createdAt,value
2019-02-12T00:00:56.113Z,2.45
2019-02-12T00:03:25.375Z,2.35
2019-02-12T00:05:54.563Z,2.50
2019-02-12T00:08:23.780Z,2.90
2019-02-12T00:10:53.066Z,2.33
2019-02-12T00:13:23.275Z,3.02
2019-02-12T00:15:52.533Z,2.52
2019-02-12T00:18:22.729Z,3.12
2019-02-12T00:20:51.904Z,2.30
2019-02-12T00:23:21.101Z,2.00
2019-02-12T00:25:50.163Z,1.95
2019-02-12T00:28:19.334Z,2.02
2019-02-12T00:30:49.487Z,1.70
2019-02-12T00:33:18.772Z,1.20
2019-02-12T00:35:47.897Z,1.42
2019-02-12T00:38:17.058Z,1.90
2019-02-12T00:40:46.345Z,1.85
2019-02-12T00:43:15.539Z,1.17
2019-02-12T00:45:44.713Z,2.10
2019-02-12T00:48:14.034Z,1.50
2019-02-12T00:50:43.258Z,1.60
2019-02-12T00:53:12.494Z,1.50
2019-02-12T00:55:41.646Z,1.05
2019-02-12T00:58:10.780Z,1.10
2019-02-12T01:00:39.853Z,0.82
2019-02-12T01:03:09.030Z,1.10
2019-02-12T01:05:38.240Z,0.60
2019-02-12T01:08:08.540Z,1.20
2019-02-12T01:10:37.866Z,0.60
2019-02-12T01:13:07.094Z,1.12
2019-02-12T01:15:36.254Z,1.02
2019-02-12T01:18:05.373Z,0.80
2019-02-12T01:20:34.713Z,1.52
2019-02-12T01:23:04.007Z,1.40
2019-02-12T01:25:33.309Z,1.80
2019-02-12T01:28:02.434Z,1.20
2019-02-12T01:30:31.585Z,1.00
2019-02-12T01:33:00.834Z,1.50
2019-02-12T01:35:29.992Z,1.45
2019-02-12T01:37:59.143Z,1.40
2019-02-12T01:40:28.206Z,1.25
2019-02-12T01:42:57.438Z,1.17
2019-02-12T01:45:26.582Z,1.40
2019-02-12T01:47:56.617Z,1.22
2019-02-12T01:50:25.869Z,2.25
2019-02-12T01:52:55.062Z,1.42
2019-02-12T01:55:24.217Z,1.37
2019-02-12T01:57:53.380Z,1.30
2019-02-12T02:00:22.581Z,1.40
2019-02-12T02:02:51.756Z,1.62
2019-02-12T02:05:20.931Z,1.62
2019-02-12T02:07:50.094Z,2.10
2019-02-12T02:10:19.210Z,1.65
2019-02-12T02:12:48.481Z,1.55
2019-02-12T02:15:17.827Z,1.90
2019-02-12T02:17:46.999Z,1.75
2019-02-12T02:20:16.190Z,1.40
2019-02-12T02:22:45.387Z,1.20
2019-02-12T02:25:14.578Z,1.50
2019-02-12T02:27:43.746Z,1.55
2019-02-12T02:30:14.418Z,1.92
2019-02-12T02:32:43.637Z,1.57
2019-02-12T02:35:12.975Z,1.37
2019-02-12T02:37:42.170Z,1.30
2019-02-12T02:40:11.385Z,1.40
2019-02-12T02:42:40.602Z,1.15
2019-02-12T02:45:11.219Z,1.40
2019-02-12T02:47:40.495Z,1.65
2019-02-12T02:50:10.155Z,1.42
2019-02-12T02:52:39.379Z,1.40
2019-02-12T02:55:08.885Z,1.62
2019-02-12T02:57:38.085Z,1.75
2019-02-12T03:00:08.520Z,1.30
2019-02-12T03:02:37.681Z,0.90
2019-02-12T03:05:08.094Z,1.20
2019-02-12T03:07:37.396Z,1.35
2019-02-12T03:10:07.536Z,1.15
2019-02-12T03:12:36.705Z,1.72
2019-02-12T03:15:07.110Z,1.45
2019-02-12T03:17:36.373Z,1.62
2019-02-12T03:20:07.073Z,1.40
2019-02-12T03:22:36.265Z,1.30
2019-02-12T03:25:06.639Z,1.92
2019-02-12T03:27:35.857Z,1.20
2019-02-12T03:30:06.357Z,0.98
2019-02-12T03:32:35.523Z,1.75
2019-02-12T03:35:05.493Z,2.17
2019-02-12T03:37:34.776Z,1.32
2019-02-12T03:40:04.537Z,1.35
2019-02-12T03:42:33.635Z,1.55
2019-02-12T03:45:02.865Z,1.20
2019-02-12T03:47:32.044Z,1.35
2019-02-12T03:50:01.290Z,1.40
2019-02-12T03:52:30.505Z,1.47
2019-02-12T03:54:59.636Z,1.20
2019-02-12T03:57:28.784Z,1.00
2019-02-12T03:59:58.030Z,1.00
2019-02-12T04:02:27.227Z,0.95
2019-02-12T04:04:56.558Z,1.07
2019-02-12T04:07:25.758Z,1.15
2019-02-12T04:09:54.969Z,0.95
2019-02-12T04:12:24.098Z,1.77
2019-02-12T04:14:53.302Z,1.20
2019-02-12T04:17:22.499Z,1.27
2019-02-12T04:19:51.754Z,1.10
2019-02-12T04:22:23.015Z,1.37
2019-02-12T04:24:51.752Z,1.00
2019-02-12T04:27:20.888Z,1.30
2019-02-12T04:29:51.113Z,1.27
2019-02-12T04:32:20.357Z,1.05
2019-02-12T04:34:49.592Z,1.25
2019-02-12T04:37:18.754Z,1.10
2019-02-12T04:39:48.019Z,1.17
2019-02-12T04:42:17.253Z,1.10
2019-02-12T04:44:46.381Z,1.00
2019-02-12T04:47:15.572Z,0.90
2019-02-12T04:49:44.729Z,0.93
2019-02-12T04:52:13.866Z,1.07
2019-02-12T04:54:43.049Z,1.02
2019-02-12T04:57:12.172Z,1.15
2019-02-12T04:59:41.259Z,1.07
2019-02-12T05:02:10.449Z,0.90
2019-02-12T05:04:39.677Z,1.10
2019-02-12T05:07:08.816Z,0.95
2019-02-12T05:09:39.760Z,1.00
2019-02-12T05:12:08.928Z,0.70
2019-02-12T05:14:38.149Z,0.65
2019-02-12T05:17:07.458Z,1.37
2019-02-12T05:19:36.639Z,1.02
2019-02-12T05:22:05.789Z,1.60
2019-02-12T05:24:35.023Z,0.90
2019-02-12T05:27:04.145Z,1.25
2019-02-12T05:29:33.225Z,1.30
2019-02-12T05:32:02.343Z,1.10
2019-02-12T05:34:31.497Z,0.95
2019-02-12T05:37:00.626Z,1.72
2019-02-12T05:39:29.776Z,0.95
2019-02-12T05:41:58.927Z,1.25
2019-02-12T05:44:28.161Z,1.10
2019-02-12T05:46:57.302Z,1.12
2019-02-12T05:49:26.439Z,1.02
2019-02-12T05:51:55.661Z,1.00
2019-02-12T05:54:24.851Z,1.30
2019-02-12T05:56:54.018Z,1.40
2019-02-12T05:59:23.159Z,1.17
2019-02-12T06:01:52.302Z,1.00
2019-02-12T06:04:21.537Z,1.00
2019-02-12T06:06:50.643Z,1.07
2019-02-12T06:09:19.890Z,0.95
2019-02-12T06:11:49.035Z,1.17
2019-02-12T06:14:18.239Z,1.40
2019-02-12T06:16:47.437Z,1.15
2019-02-12T06:19:16.640Z,1.42
2019-02-12T06:21:45.779Z,1.15
2019-02-12T06:24:14.946Z,1.15
2019-02-12T06:26:44.115Z,1.02
2019-02-12T06:29:13.445Z,1.20
2019-02-12T06:31:42.566Z,1.17
2019-02-12T06:34:11.869Z,1.25
2019-02-12T06:36:41.009Z,1.85
2019-02-12T06:39:10.161Z,3.20
2019-02-12T06:41:39.328Z,1.90
2019-02-12T06:44:08.587Z,1.95
2019-02-12T06:46:37.703Z,5.03
2019-02-12T06:49:06.960Z,3.92
2019-02-12T06:51:36.173Z,6.62
2019-02-12T06:54:05.478Z,4.25
2019-02-12T06:56:34.640Z,3.30
2019-02-12T06:59:03.782Z,1.75
2019-02-12T07:01:33.080Z,3.08
2019-02-12T07:04:02.331Z,2.12
2019-02-12T07:06:39.007Z,1.65
2019-02-12T07:09:09.670Z,2.30
2019-02-12T07:11:52.234Z,2.37
2019-02-12T07:14:31.807Z,1.67
2019-02-12T07:17:08.514Z,2.45
2019-02-12T07:19:54.502Z,2.22
2019-02-12T07:22:25.221Z,2.15
2019-02-12T07:25:12.429Z,2.25
2019-02-12T07:27:43.105Z,1.50
2019-02-12T07:30:16.416Z,1.85
2019-02-12T07:32:49.946Z,1.52
2019-02-12T07:35:39.027Z,1.52
2019-02-12T07:38:12.569Z,1.32
2019-02-12T07:40:45.914Z,1.40
2019-02-12T07:43:16.556Z,1.40
2019-02-12T07:45:47.169Z,1.60
2019-02-12T07:48:17.851Z,2.00
2019-02-12T07:51:05.237Z,1.72
2019-02-12T07:53:35.899Z,2.15
2019-02-12T07:56:06.534Z,1.72
2019-02-12T07:58:42.901Z,2.87
2019-02-12T08:01:22.690Z,1.27
2019-02-12T08:03:53.374Z,2.22
2019-02-12T08:06:26.801Z,2.00
2019-02-12T08:08:57.534Z,2.15
2019-02-12T08:11:40.229Z,2.10
2019-02-12T08:14:10.879Z,1.92
2019-02-12T08:16:47.549Z,1.75
2019-02-12T08:19:36.402Z,1.92
2019-02-12T08:22:09.967Z,1.80
2019-02-12T08:24:55.661Z,2.60
2019-02-12T08:27:35.316Z,2.30
2019-02-12T08:30:22.738Z,1.32
2019-02-12T08:32:56.375Z,2.65
2019-02-12T08:35:27.133Z,2.50
2019-02-12T08:38:00.665Z,2.42
2019-02-12T08:40:31.379Z,3.05
2019-02-12T08:43:05.109Z,1.75
2019-02-12T08:45:38.702Z,2.92
2019-02-12T08:48:21.324Z,2.20
2019-02-12T08:51:03.822Z,2.65
2019-02-12T08:53:50.762Z,2.98
2019-02-12T08:56:27.322Z,2.35
2019-02-12T08:59:13.342Z,2.55
2019-02-12T09:01:53.253Z,2.65
2019-02-12T09:04:40.833Z,2.52
2019-02-12T09:07:11.511Z,2.10
2019-02-12T09:09:44.836Z,2.75
2019-02-12T09:12:24.301Z,2.02
2019-02-12T09:15:00.742Z,2.55
2019-02-12T09:17:34.058Z,2.22
2019-02-12T09:20:04.739Z,1.95
2019-02-12T09:22:50.473Z,2.17
2019-02-12T09:25:30.059Z,2.33
2019-02-12T09:28:20.884Z,1.55
2019-02-12T09:30:51.553Z,2.00
2019-02-12T09:33:28.333Z,2.17
2019-02-12T09:35:59.008Z,1.72
2019-02-12T09:38:29.627Z,2.25
2019-02-12T09:41:03.219Z,2.55
2019-02-12T09:43:36.661Z,2.40
2019-02-12T09:46:20.324Z,2.67
2019-02-12T09:48:56.924Z,1.27
2019-02-12T09:51:31.413Z,1.65
2019-02-12T09:54:08.808Z,2.12
2019-02-12T09:56:53.612Z,1.47
2019-02-12T09:59:24.267Z,1.37
2019-02-12T10:02:11.762Z,1.57
2019-02-12T10:04:45.360Z,1.45
2019-02-12T10:07:18.603Z,1.32
2019-02-12T10:09:49.246Z,1.55
2019-02-12T10:12:31.901Z,0.90
2019-02-12T10:15:19.412Z,1.30
2019-02-12T10:17:50.065Z,1.47
2019-02-12T10:20:24.678Z,1.70
2019-02-12T10:23:01.388Z,1.17
2019-02-12T10:25:31.646Z,1.98
2019-02-12T10:28:05.054Z,1.60
2019-02-12T10:30:35.774Z,1.85
2019-02-12T10:33:04.998Z,1.20
2019-02-12T10:35:34.219Z,1.07
2019-02-12T10:38:03.378Z,1.20
2019-02-12T10:40:32.593Z,1.22
2019-02-12T10:43:01.863Z,1.45
2019-02-12T10:45:31.058Z,2.10
2019-02-12T10:48:00.210Z,2.37
2019-02-12T10:50:29.403Z,1.75
2019-02-12T10:52:59.636Z,1.62
2019-02-12T10:55:28.776Z,1.30
2019-02-12T10:57:57.901Z,2.75
2019-02-12T11:00:27.235Z,1.20
2019-02-12T11:02:56.441Z,1.62
2019-02-12T11:05:25.613Z,1.00
2019-02-12T11:07:54.826Z,1.80
2019-02-12T11:10:24.043Z,1.45
2019-02-12T11:12:53.264Z,1.42
2019-02-12T11:15:22.424Z,1.57
2019-02-12T11:17:51.646Z,1.47
2019-02-12T11:20:20.789Z,1.72
2019-02-12T11:22:49.953Z,1.52
2019-02-12T11:25:19.146Z,1.82
2019-02-12T11:27:48.468Z,2.75
2019-02-12T11:30:17.655Z,2.10
2019-02-12T11:32:46.871Z,2.02
2019-02-12T11:35:16.051Z,2.20
2019-02-12T11:37:45.331Z,1.27
2019-02-12T11:40:14.530Z,1.30
2019-02-12T11:42:43.774Z,1.37
2019-02-12T11:45:15.828Z,1.27
2019-02-12T11:47:44.987Z,1.07
2019-02-12T11:50:14.107Z,1.40
2019-02-12T11:52:43.243Z,1.07
2019-02-12T11:55:13.056Z,1.37
2019-02-12T11:57:42.196Z,1.25
2019-02-12T12:00:16.498Z,1.70
2019-02-12T12:02:45.736Z,1.98
2019-02-12T12:05:14.954Z,2.15
2019-02-12T12:07:44.104Z,3.12
2019-02-12T12:10:13.330Z,1.25
2019-02-12T12:12:42.524Z,2.02
2019-02-12T12:15:12.776Z,1.30
2019-02-12T12:17:42.954Z,1.22
2019-02-12T12:20:12.818Z,1.05
2019-02-12T12:22:41.978Z,1.22
2019-02-12T12:25:11.596Z,1.42
2019-02-12T12:27:40.773Z,1.30
2019-02-12T12:30:11.406Z,1.82
2019-02-12T12:32:40.558Z,2.05
2019-02-12T12:35:10.659Z,1.37
2019-02-12T12:37:40.900Z,1.22
2019-02-12T12:40:11.003Z,1.47
2019-02-12T12:42:40.222Z,1.22
2019-02-12T12:45:10.901Z,1.45
2019-02-12T12:47:40.128Z,1.35
2019-02-12T12:50:12.641Z,1.45
2019-02-12T12:52:41.867Z,1.00
2019-02-12T12:55:11.245Z,1.10
2019-02-12T12:57:42.139Z,0.93
2019-02-12T13:00:12.784Z,1.05
2019-02-12T13:02:42.034Z,1.05
2019-02-12T13:05:11.330Z,1.17
2019-02-12T13:07:41.241Z,0.80
2019-02-12T13:10:12.147Z,1.35
2019-02-12T13:12:42.377Z,0.82
2019-02-12T13:15:14.912Z,0.93
2019-02-12T13:17:45.702Z,1.50
2019-02-12T13:20:16.042Z,0.68
2019-02-12T13:22:45.314Z,1.75
2019-02-12T13:25:14.524Z,0.90
2019-02-12T13:27:43.734Z,1.10
2019-02-12T13:30:14.568Z,1.40
2019-02-12T13:32:45.216Z,1.22
2019-02-12T13:35:14.601Z,1.20
2019-02-12T13:37:45.371Z,1.00
2019-02-12T13:40:14.548Z,1.32
2019-02-12T13:42:43.797Z,0.90
2019-02-12T13:45:14.024Z,1.40
2019-02-12T13:47:43.261Z,1.42
2019-02-12T13:50:13.369Z,1.82
2019-02-12T13:52:42.521Z,1.25
2019-02-12T13:55:17.255Z,1.32
2019-02-12T13:57:43.035Z,1.37
2019-02-12T14:00:14.267Z,0.98
2019-02-12T14:02:43.575Z,1.00
2019-02-12T14:05:14.142Z,1.12
2019-02-12T14:07:43.506Z,1.10
2019-02-12T14:10:12.806Z,1.50
2019-02-12T14:12:41.931Z,2.00
2019-02-12T14:15:12.113Z,1.95
2019-02-12T14:17:41.307Z,1.40
2019-02-12T14:20:11.741Z,1.12
2019-02-12T14:22:40.948Z,1.60
2019-02-12T14:25:11.467Z,1.52
2019-02-12T14:27:40.762Z,1.60
2019-02-12T14:30:13.981Z,2.15
2019-02-12T14:32:43.270Z,1.55
2019-02-12T14:35:12.650Z,1.55
2019-02-12T14:37:41.911Z,1.50
2019-02-12T14:40:11.853Z,1.20
2019-02-12T14:42:41.050Z,1.10
2019-02-12T14:45:14.870Z,1.62
2019-02-12T14:47:44.289Z,1.37
2019-02-12T14:50:13.927Z,1.45
2019-02-12T14:52:43.161Z,1.10
2019-02-12T14:55:12.484Z,1.32
2019-02-12T14:57:43.344Z,1.82
2019-02-12T15:00:18.779Z,1.40
2019-02-12T15:02:48.453Z,1.70
2019-02-12T15:05:18.861Z,1.77
2019-02-12T15:07:48.038Z,1.90
2019-02-12T15:10:17.334Z,1.52
2019-02-12T15:12:47.408Z,1.77
2019-02-12T15:15:16.907Z,2.62
2019-02-12T15:17:46.233Z,1.62
2019-02-12T15:20:15.515Z,1.50
2019-02-12T15:22:44.855Z,2.02
2019-02-12T15:25:14.070Z,2.00
2019-02-12T15:27:43.225Z,2.10
2019-02-12T15:30:13.823Z,2.67
2019-02-12T15:32:42.974Z,2.25
2019-02-12T15:35:12.210Z,2.25
2019-02-12T15:37:45.822Z,2.12
2019-02-12T15:40:16.858Z,1.72
2019-02-12T15:42:46.265Z,1.70
2019-02-12T15:45:19.590Z,1.87
2019-02-12T15:47:50.109Z,2.65
2019-02-12T15:50:19.327Z,2.52
2019-02-12T15:52:49.548Z,2.17
2019-02-12T15:55:20.942Z,1.60
2019-02-12T15:57:50.658Z,1.72
2019-02-12T16:00:22.718Z,2.35
2019-02-12T16:02:52.054Z,2.40
2019-02-12T16:05:21.274Z,1.90
2019-02-12T16:07:50.526Z,1.98
2019-02-12T16:10:20.273Z,2.22
2019-02-12T16:12:51.411Z,2.17
2019-02-12T16:15:22.399Z,2.35
2019-02-12T16:17:53.165Z,1.77
2019-02-12T16:20:26.103Z,2.33
2019-02-12T16:22:57.111Z,2.42
2019-02-12T16:25:26.356Z,2.72
2019-02-12T16:27:55.700Z,1.98
2019-02-12T16:30:25.262Z,2.42
2019-02-12T16:32:54.736Z,2.62
2019-02-12T16:35:25.049Z,1.85
2019-02-12T16:37:56.643Z,2.15
2019-02-12T16:40:29.475Z,3.22
2019-02-12T16:42:59.000Z,3.62
2019-02-12T16:45:29.800Z,2.90
2019-02-12T16:48:00.221Z,3.00
2019-02-12T16:50:29.647Z,2.30
2019-02-12T16:52:58.866Z,2.33
2019-02-12T16:55:28.135Z,2.60
2019-02-12T16:57:57.544Z,3.02
2019-02-12T17:00:26.954Z,3.75
2019-02-12T17:02:56.175Z,3.35
2019-02-12T17:05:25.547Z,3.17
2019-02-12T17:07:54.634Z,2.67
2019-02-12T17:10:23.859Z,2.47
2019-02-12T17:12:53.109Z,2.85
2019-02-12T17:15:22.223Z,3.47
2019-02-12T17:17:51.484Z,2.52
2019-02-12T17:20:24.209Z,3.00
2019-02-12T17:22:53.356Z,2.77
2019-02-12T17:25:22.498Z,2.60
2019-02-12T17:27:51.654Z,3.87
2019-02-12T17:30:20.810Z,2.90
2019-02-12T17:32:50.068Z,3.27
2019-02-12T17:35:20.283Z,2.83
2019-02-12T17:37:49.511Z,2.77
2019-02-12T17:40:18.806Z,3.33
2019-02-12T17:42:48.497Z,2.35
2019-02-12T17:45:18.547Z,2.62
2019-02-12T17:47:47.774Z,2.80
2019-02-12T17:50:17.014Z,2.62
2019-02-12T17:52:46.317Z,3.05
2019-02-12T17:55:18.379Z,3.52
2019-02-12T17:57:47.698Z,3.02
2019-02-12T18:00:19.156Z,3.00
2019-02-12T18:02:48.326Z,2.72
2019-02-12T18:05:17.436Z,3.00
2019-02-12T18:07:46.609Z,3.67
2019-02-12T18:10:15.827Z,6.17
2019-02-12T18:12:44.976Z,4.30
2019-02-12T18:15:14.568Z,3.92
2019-02-12T18:17:43.718Z,3.30
2019-02-12T18:20:14.349Z,2.90
2019-02-12T18:22:43.479Z,2.80
2019-02-12T18:25:12.619Z,2.83
2019-02-12T18:27:41.753Z,2.25
2019-02-12T18:30:15.067Z,2.92
2019-02-12T18:32:44.190Z,2.83
2019-02-12T18:35:13.357Z,2.42
2019-02-12T18:37:42.651Z,2.70
2019-02-12T18:40:12.951Z,3.30
2019-02-12T18:42:42.118Z,3.25
2019-02-12T18:45:12.512Z,3.85
2019-02-12T18:47:41.649Z,3.37
2019-02-12T18:50:11.464Z,4.00
2019-02-12T18:52:41.657Z,4.35
2019-02-12T18:55:11.823Z,3.98
2019-02-12T18:57:41.034Z,3.77
2019-02-12T19:00:11.627Z,4.12
2019-02-12T19:02:40.877Z,3.27
2019-02-12T19:05:10.472Z,3.15
2019-02-12T19:07:39.648Z,3.40
2019-02-12T19:10:10.147Z,3.55
2019-02-12T19:12:39.395Z,3.42
2019-02-12T19:15:15.837Z,4.08
2019-02-12T19:17:46.283Z,4.45
2019-02-12T19:20:15.521Z,3.77
2019-02-12T19:22:44.674Z,4.08
2019-02-12T19:25:13.822Z,3.65
2019-02-12T19:27:42.973Z,3.92
2019-02-12T19:30:13.687Z,4.62
2019-02-12T19:32:42.807Z,3.67
2019-02-12T19:35:11.999Z,3.52
2019-02-12T19:37:41.098Z,3.70
2019-02-12T19:40:10.955Z,3.95
2019-02-12T19:42:40.233Z,3.33
2019-02-12T19:45:10.699Z,3.33
2019-02-12T19:47:39.886Z,3.17
2019-02-12T19:50:09.601Z,2.75
2019-02-12T19:52:38.762Z,3.02
2019-02-12T19:55:08.405Z,3.00
2019-02-12T19:57:37.558Z,3.40
2019-02-12T20:00:09.422Z,3.50
2019-02-12T20:02:38.638Z,3.10
2019-02-12T20:05:09.136Z,2.55
2019-02-12T20:07:38.347Z,3.20
2019-02-12T20:10:08.899Z,3.17
2019-02-12T20:12:38.058Z,3.62
2019-02-12T20:15:08.702Z,2.95
2019-02-12T20:17:37.859Z,8.38
2019-02-12T20:20:08.609Z,15.05
2019-02-12T20:22:37.833Z,19.10
2019-02-12T20:25:07.666Z,16.73
2019-02-12T20:27:36.822Z,11.18
2019-02-12T20:30:07.876Z,8.43
2019-02-12T20:32:37.043Z,5.80
2019-02-12T20:35:08.852Z,6.25
2019-02-12T20:37:38.198Z,6.60
2019-02-12T20:40:08.564Z,5.78
2019-02-12T20:42:37.765Z,5.97
2019-02-12T20:45:08.401Z,6.62
2019-02-12T20:47:37.694Z,6.47
2019-02-12T20:50:08.450Z,5.87
2019-02-12T20:52:37.612Z,5.67
2019-02-12T20:55:07.594Z,5.10
2019-02-12T20:57:36.708Z,3.98
2019-02-12T21:00:10.603Z,4.08
2019-02-12T21:02:39.814Z,4.22
2019-02-12T21:05:10.166Z,3.72
2019-02-12T21:07:39.310Z,3.87
2019-02-12T21:10:10.082Z,4.00
2019-02-12T21:12:39.213Z,4.65
2019-02-12T21:15:09.872Z,4.25
2019-02-12T21:17:39.042Z,4.40
2019-02-12T21:20:10.579Z,3.77
2019-02-12T21:22:40.469Z,3.20
2019-02-12T21:25:10.414Z,3.72
2019-02-12T21:27:39.649Z,3.00
2019-02-12T21:30:10.560Z,4.08
2019-02-12T21:32:39.677Z,4.90
2019-02-12T21:35:09.943Z,4.15
2019-02-12T21:37:39.097Z,4.10
2019-02-12T21:40:09.944Z,4.00
2019-02-12T21:42:39.078Z,4.08
2019-02-12T21:45:09.635Z,4.33
2019-02-12T21:47:38.882Z,4.10
2019-02-12T21:50:09.127Z,4.40
2019-02-12T21:52:38.261Z,3.95
2019-02-12T21:55:12.428Z,4.25
2019-02-12T21:57:41.696Z,5.70
2019-02-12T22:00:12.130Z,4.08
2019-02-12T22:02:41.439Z,4.22
2019-02-12T22:05:11.595Z,4.35
2019-02-12T22:07:40.742Z,5.08
2019-02-12T22:10:14.018Z,3.98
2019-02-12T22:12:43.151Z,3.10
2019-02-12T22:15:12.693Z,3.65
2019-02-12T22:17:42.013Z,3.87
2019-02-12T22:20:12.083Z,3.95
2019-02-12T22:22:41.242Z,4.33
2019-02-12T22:25:11.530Z,3.50
2019-02-12T22:27:40.880Z,4.25
2019-02-12T22:30:18.827Z,4.28
2019-02-12T22:32:47.989Z,4.05
2019-02-12T22:35:17.128Z,4.80
2019-02-12T22:37:46.270Z,5.00
2019-02-12T22:40:15.817Z,4.12
2019-02-12T22:42:44.921Z,3.92
2019-02-12T22:45:15.148Z,3.83
2019-02-12T22:47:44.314Z,5.12
2019-02-12T22:50:13.532Z,3.83
2019-02-12T22:52:42.606Z,4.67
2019-02-12T22:55:11.776Z,6.20
2019-02-12T22:57:48.564Z,4.60
2019-02-12T23:00:16.038Z,5.75
2019-02-12T23:02:46.653Z,6.42
2019-02-12T23:05:15.803Z,5.67
2019-02-12T23:07:44.943Z,5.80
2019-02-12T23:10:14.171Z,4.25
2019-02-12T23:12:43.286Z,4.08
2019-02-12T23:15:12.466Z,4.20
2019-02-12T23:17:41.578Z,4.45
2019-02-12T23:20:10.749Z,4.70
2019-02-12T23:22:39.919Z,4.45
2019-02-12T23:25:09.061Z,4.85
2019-02-12T23:27:38.230Z,4.35
2019-02-12T23:30:08.658Z,4.80
2019-02-12T23:32:37.807Z,4.58
2019-02-12T23:35:06.937Z,5.08
2019-02-12T23:37:37.104Z,4.95
2019-02-12T23:40:06.970Z,5.10
2019-02-12T23:42:36.138Z,4.90
2019-02-12T23:45:06.279Z,4.75
2019-02-12T23:47:35.449Z,4.60
2019-02-12T23:50:06.067Z,5.35
2019-02-12T23:52:35.216Z,5.42
2019-02-12T23:55:05.093Z,5.10
2019-02-12T23:57:34.230Z,6.15
